sensor_id;sensor_type;location;lat;lon;timestamp;P1;durP1;ratioP1;P2;durP2;ratioP2
10900;SDS011;5503;53.208;10.392;2023-07-20T00:01:50;2.20;;;0.60;;
10900;SDS011;5503;53.208;10.392;2023-07-20T00:04:18;2.17;;;0.60;;
10900;SDS011;5503;53.208;10.392;2023-07-20T00:06:45;2.17;;;0.60;;
10900;SDS011;5503;53.208;10.392;2023-07-20T00:09:13;2.38;;;0.70;;
10900;SDS011;5503;53.208;10.392;2023-07-20T00:11:40;2.40;;;0.73;;
10900;SDS011;5503;53.208;10.392;2023-07-20T00:14:07;2.50;;;0.90;;
10900;SDS011;5503;53.208;10.392;2023-07-20T00:16:35;2.25;;;0.60;;
10900;SDS011;5503;53.208;10.392;2023-07-20T00:19:01;2.30;;;0.60;;
10900;SDS011;5503;53.208;10.392;2023-07-20T00:21:31;2.10;;;0.52;;
10900;SDS011;5503;53.208;10.392;2023-07-20T00:23:58;2.35;;;0.70;;
10900;SDS011;5503;53.208;10.392;2023-07-20T00:26:25;2.20;;;0.60;;
10900;SDS011;5503;53.208;10.392;2023-07-20T00:28:52;2.42;;;0.75;;
10900;SDS011;5503;53.208;10.392;2023-07-20T00:31:19;2.30;;;0.70;;
10900;SDS011;5503;53.208;10.392;2023-07-20T00:33:46;2.28;;;0.70;;
10900;SDS011;5503;53.208;10.392;2023-07-20T00:36:13;2.30;;;0.70;;
10900;SDS011;5503;53.208;10.392;2023-07-20T00:38:42;2.28;;;0.60;;
10900;SDS011;5503;53.208;10.392;2023-07-20T00:41:09;2.30;;;0.65;;
10900;SDS011;5503;53.208;10.392;2023-07-20T00:43:36;2.40;;;0.70;;
10900;SDS011;5503;53.208;10.392;2023-07-20T00:46:03;2.10;;;0.60;;
10900;SDS011;5503;53.208;10.392;2023-07-20T00:48:31;2.40;;;0.70;;
10900;SDS011;5503;53.208;10.392;2023-07-20T00:50:58;2.40;;;0.65;;
10900;SDS011;5503;53.208;10.392;2023-07-20T00:53:26;2.22;;;0.63;;
10900;SDS011;5503;53.208;10.392;2023-07-20T00:55:55;2.30;;;0.70;;
10900;SDS011;5503;53.208;10.392;2023-07-20T00:58:23;2.40;;;0.70;;
10900;SDS011;5503;53.208;10.392;2023-07-20T01:00:50;2.25;;;0.68;;
10900;SDS011;5503;53.208;10.392;2023-07-20T01:03:17;2.20;;;0.60;;
10900;SDS011;5503;53.208;10.392;2023-07-20T01:05:46;2.60;;;1.08;;
10900;SDS011;5503;53.208;10.392;2023-07-20T01:08:21;2.23;;;0.60;;
10900;SDS011;5503;53.208;10.392;2023-07-20T01:10:59;2.10;;;0.60;;
10900;SDS011;5503;53.208;10.392;2023-07-20T01:13:31;2.40;;;0.70;;
10900;SDS011;5503;53.208;10.392;2023-07-20T01:16:00;2.20;;;0.60;;
10900;SDS011;5503;53.208;10.392;2023-07-20T01:18:28;2.30;;;0.65;;
10900;SDS011;5503;53.208;10.392;2023-07-20T01:20:56;2.40;;;0.70;;
10900;SDS011;5503;53.208;10.392;2023-07-20T01:23:39;2.25;;;0.60;;
10900;SDS011;5503;53.208;10.392;2023-07-20T01:26:34;2.25;;;0.60;;
10900;SDS011;5503;53.208;10.392;2023-07-20T01:29:17;2.40;;;0.70;;
10900;SDS011;5503;53.208;10.392;2023-07-20T01:31:54;2.08;;;0.50;;
10900;SDS011;5503;53.208;10.392;2023-07-20T01:34:23;2.30;;;0.70;;
10900;SDS011;5503;53.208;10.392;2023-07-20T01:36:52;2.15;;;0.60;;
10900;SDS011;5503;53.208;10.392;2023-07-20T01:39:20;2.50;;;0.80;;
10900;SDS011;5503;53.208;10.392;2023-07-20T01:41:48;2.30;;;0.70;;
10900;SDS011;5503;53.208;10.392;2023-07-20T01:44:14;2.40;;;0.70;;
10900;SDS011;5503;53.208;10.392;2023-07-20T01:46:41;2.50;;;0.80;;
10900;SDS011;5503;53.208;10.392;2023-07-20T01:49:10;2.38;;;0.60;;
10900;SDS011;5503;53.208;10.392;2023-07-20T01:51:37;2.17;;;0.60;;
10900;SDS011;5503;53.208;10.392;2023-07-20T01:54:04;2.20;;;0.60;;
10900;SDS011;5503;53.208;10.392;2023-07-20T01:56:31;2.40;;;0.70;;
10900;SDS011;5503;53.208;10.392;2023-07-20T01:58:58;2.40;;;0.70;;
10900;SDS011;5503;53.208;10.392;2023-07-20T02:01:25;2.28;;;0.63;;
10900;SDS011;5503;53.208;10.392;2023-07-20T02:03:54;2.15;;;0.60;;
10900;SDS011;5503;53.208;10.392;2023-07-20T02:06:22;2.40;;;0.70;;
10900;SDS011;5503;53.208;10.392;2023-07-20T02:08:49;2.20;;;0.60;;
10900;SDS011;5503;53.208;10.392;2023-07-20T02:13:44;2.40;;;0.70;;
10900;SDS011;5503;53.208;10.392;2023-07-20T02:16:11;2.50;;;0.75;;
10900;SDS011;5503;53.208;10.392;2023-07-20T02:18:38;2.30;;;0.63;;
10900;SDS011;5503;53.208;10.392;2023-07-20T02:21:05;2.50;;;0.80;;
10900;SDS011;5503;53.208;10.392;2023-07-20T02:23:33;2.40;;;0.80;;
10900;SDS011;5503;53.208;10.392;2023-07-20T02:26:00;2.20;;;0.63;;
10900;SDS011;5503;53.208;10.392;2023-07-20T02:28:27;2.30;;;0.68;;
10900;SDS011;5503;53.208;10.392;2023-07-20T02:30:54;2.40;;;0.70;;
10900;SDS011;5503;53.208;10.392;2023-07-20T02:33:21;2.20;;;0.60;;
10900;SDS011;5503;53.208;10.392;2023-07-20T02:35:48;2.50;;;0.80;;
10900;SDS011;5503;53.208;10.392;2023-07-20T02:38:16;2.40;;;0.70;;
10900;SDS011;5503;53.208;10.392;2023-07-20T02:40:44;2.50;;;0.80;;
10900;SDS011;5503;53.208;10.392;2023-07-20T02:43:11;2.40;;;0.70;;
10900;SDS011;5503;53.208;10.392;2023-07-20T02:45:39;2.47;;;0.73;;
10900;SDS011;5503;53.208;10.392;2023-07-20T02:48:07;2.40;;;0.70;;
10900;SDS011;5503;53.208;10.392;2023-07-20T02:50:34;2.30;;;0.60;;
10900;SDS011;5503;53.208;10.392;2023-07-20T02:53:01;2.10;;;0.60;;
10900;SDS011;5503;53.208;10.392;2023-07-20T02:55:28;2.25;;;0.70;;
10900;SDS011;5503;53.208;10.392;2023-07-20T02:57:57;2.40;;;0.70;;
10900;SDS011;5503;53.208;10.392;2023-07-20T03:00:24;2.40;;;0.80;;
10900;SDS011;5503;53.208;10.392;2023-07-20T03:02:51;2.40;;;0.75;;
10900;SDS011;5503;53.208;10.392;2023-07-20T03:05:20;2.40;;;0.80;;
10900;SDS011;5503;53.208;10.392;2023-07-20T03:07:48;2.30;;;0.80;;
10900;SDS011;5503;53.208;10.392;2023-07-20T03:10:15;2.30;;;0.70;;
10900;SDS011;5503;53.208;10.392;2023-07-20T03:12:42;2.40;;;0.70;;
10900;SDS011;5503;53.208;10.392;2023-07-20T03:15:11;2.28;;;0.63;;
10900;SDS011;5503;53.208;10.392;2023-07-20T03:17:38;2.20;;;0.63;;
10900;SDS011;5503;53.208;10.392;2023-07-20T03:20:05;2.40;;;0.70;;
10900;SDS011;5503;53.208;10.392;2023-07-20T03:22:35;2.50;;;0.80;;
10900;SDS011;5503;53.208;10.392;2023-07-20T03:25:02;2.40;;;0.70;;
10900;SDS011;5503;53.208;10.392;2023-07-20T03:27:30;2.50;;;0.70;;
10900;SDS011;5503;53.208;10.392;2023-07-20T03:29:57;2.40;;;0.70;;
10900;SDS011;5503;53.208;10.392;2023-07-20T03:32:26;2.20;;;0.60;;
10900;SDS011;5503;53.208;10.392;2023-07-20T03:34:54;2.17;;;0.60;;
10900;SDS011;5503;53.208;10.392;2023-07-20T03:37:21;2.23;;;0.60;;
10900;SDS011;5503;53.208;10.392;2023-07-20T03:39:48;2.30;;;0.68;;
10900;SDS011;5503;53.208;10.392;2023-07-20T03:42:15;2.40;;;0.70;;
10900;SDS011;5503;53.208;10.392;2023-07-20T03:44:42;2.20;;;0.60;;
10900;SDS011;5503;53.208;10.392;2023-07-20T03:47:09;2.33;;;0.70;;
10900;SDS011;5503;53.208;10.392;2023-07-20T03:49:38;2.20;;;0.60;;
10900;SDS011;5503;53.208;10.392;2023-07-20T03:52:05;2.40;;;0.80;;
10900;SDS011;5503;53.208;10.392;2023-07-20T03:54:32;2.35;;;0.70;;
10900;SDS011;5503;53.208;10.392;2023-07-20T03:56:59;2.03;;;0.52;;
10900;SDS011;5503;53.208;10.392;2023-07-20T03:59:26;2.28;;;0.65;;
10900;SDS011;5503;53.208;10.392;2023-07-20T04:01:53;2.37;;;0.70;;
10900;SDS011;5503;53.208;10.392;2023-07-20T04:04:20;2.30;;;0.60;;
10900;SDS011;5503;53.208;10.392;2023-07-20T04:06:49;2.50;;;0.80;;
10900;SDS011;5503;53.208;10.392;2023-07-20T04:09:16;2.30;;;0.70;;
10900;SDS011;5503;53.208;10.392;2023-07-20T04:11:43;2.50;;;0.80;;
10900;SDS011;5503;53.208;10.392;2023-07-20T04:14:09;2.10;;;0.60;;
10900;SDS011;5503;53.208;10.392;2023-07-20T04:16:36;2.00;;;0.50;;
10900;SDS011;5503;53.208;10.392;2023-07-20T04:19:03;2.28;;;0.60;;
10900;SDS011;5503;53.208;10.392;2023-07-20T04:21:30;2.30;;;0.63;;
10900;SDS011;5503;53.208;10.392;2023-07-20T04:23:59;2.30;;;0.70;;
10900;SDS011;5503;53.208;10.392;2023-07-20T04:26:26;2.30;;;0.70;;
10900;SDS011;5503;53.208;10.392;2023-07-20T04:28:52;2.17;;;0.60;;
10900;SDS011;5503;53.208;10.392;2023-07-20T04:31:19;2.20;;;0.60;;
10900;SDS011;5503;53.208;10.392;2023-07-20T04:33:46;2.30;;;0.60;;
10900;SDS011;5503;53.208;10.392;2023-07-20T04:36:13;2.28;;;0.68;;
10900;SDS011;5503;53.208;10.392;2023-07-20T04:38:44;2.17;;;0.67;;
10900;SDS011;5503;53.208;10.392;2023-07-20T04:41:12;2.10;;;0.50;;
10900;SDS011;5503;53.208;10.392;2023-07-20T04:43:40;2.20;;;0.60;;
10900;SDS011;5503;53.208;10.392;2023-07-20T04:46:08;2.30;;;0.70;;
10900;SDS011;5503;53.208;10.392;2023-07-20T04:48:35;2.30;;;0.70;;
10900;SDS011;5503;53.208;10.392;2023-07-20T04:51:02;2.20;;;0.60;;
10900;SDS011;5503;53.208;10.392;2023-07-20T04:53:29;2.30;;;0.70;;
10900;SDS011;5503;53.208;10.392;2023-07-20T04:55:57;2.30;;;0.70;;
10900;SDS011;5503;53.208;10.392;2023-07-20T04:58:25;2.10;;;0.60;;
10900;SDS011;5503;53.208;10.392;2023-07-20T05:00:53;2.20;;;0.60;;
10900;SDS011;5503;53.208;10.392;2023-07-20T05:03:20;2.30;;;0.60;;
10900;SDS011;5503;53.208;10.392;2023-07-20T05:05:47;2.03;;;0.50;;
10900;SDS011;5503;53.208;10.392;2023-07-20T05:08:14;2.20;;;0.60;;
10900;SDS011;5503;53.208;10.392;2023-07-20T05:10:41;2.10;;;0.60;;
10900;SDS011;5503;53.208;10.392;2023-07-20T05:13:08;2.20;;;0.60;;
10900;SDS011;5503;53.208;10.392;2023-07-20T05:15:36;2.30;;;0.60;;
10900;SDS011;5503;53.208;10.392;2023-07-20T05:18:03;2.30;;;0.60;;
10900;SDS011;5503;53.208;10.392;2023-07-20T05:20:30;2.20;;;0.60;;
10900;SDS011;5503;53.208;10.392;2023-07-20T05:22:58;2.20;;;0.60;;
10900;SDS011;5503;53.208;10.392;2023-07-20T05:25:26;2.30;;;0.70;;
10900;SDS011;5503;53.208;10.392;2023-07-20T05:27:53;2.20;;;0.60;;
10900;SDS011;5503;53.208;10.392;2023-07-20T05:30:20;2.20;;;0.60;;
10900;SDS011;5503;53.208;10.392;2023-07-20T05:32:49;2.10;;;0.55;;
10900;SDS011;5503;53.208;10.392;2023-07-20T05:35:17;2.20;;;0.60;;
10900;SDS011;5503;53.208;10.392;2023-07-20T05:37:44;2.10;;;0.50;;
10900;SDS011;5503;53.208;10.392;2023-07-20T05:40:12;2.00;;;0.53;;
10900;SDS011;5503;53.208;10.392;2023-07-20T05:42:43;2.25;;;0.68;;
10900;SDS011;5503;53.208;10.392;2023-07-20T05:45:10;2.20;;;0.60;;
10900;SDS011;5503;53.208;10.392;2023-07-20T05:47:38;2.20;;;0.60;;
10900;SDS011;5503;53.208;10.392;2023-07-20T05:50:07;2.10;;;0.60;;
10900;SDS011;5503;53.208;10.392;2023-07-20T05:52:34;2.00;;;0.50;;
10900;SDS011;5503;53.208;10.392;2023-07-20T05:55:01;2.20;;;0.60;;
10900;SDS011;5503;53.208;10.392;2023-07-20T05:57:28;2.25;;;0.70;;
10900;SDS011;5503;53.208;10.392;2023-07-20T05:59:55;2.10;;;0.50;;
10900;SDS011;5503;53.208;10.392;2023-07-20T06:02:22;2.00;;;0.50;;
10900;SDS011;5503;53.208;10.392;2023-07-20T06:04:49;2.20;;;0.60;;
10900;SDS011;5503;53.208;10.392;2023-07-20T06:07:17;2.22;;;0.63;;
10900;SDS011;5503;53.208;10.392;2023-07-20T06:09:44;2.22;;;0.60;;
10900;SDS011;5503;53.208;10.392;2023-07-20T06:12:11;2.10;;;0.50;;
10900;SDS011;5503;53.208;10.392;2023-07-20T06:14:37;2.17;;;0.60;;
10900;SDS011;5503;53.208;10.392;2023-07-20T06:17:04;2.10;;;0.50;;
10900;SDS011;5503;53.208;10.392;2023-07-20T06:19:31;2.15;;;0.60;;
10900;SDS011;5503;53.208;10.392;2023-07-20T06:21:58;2.00;;;0.50;;
10900;SDS011;5503;53.208;10.392;2023-07-20T06:24:27;2.10;;;0.50;;
10900;SDS011;5503;53.208;10.392;2023-07-20T06:26:53;1.90;;;0.40;;
10900;SDS011;5503;53.208;10.392;2023-07-20T06:29:20;2.00;;;0.50;;
10900;SDS011;5503;53.208;10.392;2023-07-20T06:31:47;2.20;;;0.60;;
10900;SDS011;5503;53.208;10.392;2023-07-20T06:34:14;2.20;;;0.60;;
10900;SDS011;5503;53.208;10.392;2023-07-20T06:36:41;2.10;;;0.50;;
10900;SDS011;5503;53.208;10.392;2023-07-20T06:39:08;2.10;;;0.52;;
10900;SDS011;5503;53.208;10.392;2023-07-20T06:41:36;2.10;;;0.50;;
10900;SDS011;5503;53.208;10.392;2023-07-20T06:44:03;2.08;;;0.50;;
10900;SDS011;5503;53.208;10.392;2023-07-20T06:46:30;2.10;;;0.50;;
10900;SDS011;5503;53.208;10.392;2023-07-20T06:48:57;2.00;;;0.50;;
10900;SDS011;5503;53.208;10.392;2023-07-20T06:51:24;1.90;;;0.50;;
10900;SDS011;5503;53.208;10.392;2023-07-20T06:53:51;2.20;;;0.60;;
10900;SDS011;5503;53.208;10.392;2023-07-20T06:56:18;2.10;;;0.50;;
10900;SDS011;5503;53.208;10.392;2023-07-20T06:58:46;2.00;;;0.50;;
10900;SDS011;5503;53.208;10.392;2023-07-20T07:01:13;2.15;;;0.60;;
10900;SDS011;5503;53.208;10.392;2023-07-20T07:03:40;2.00;;;0.50;;
10900;SDS011;5503;53.208;10.392;2023-07-20T07:06:07;2.10;;;0.50;;
10900;SDS011;5503;53.208;10.392;2023-07-20T07:08:34;1.92;;;0.50;;
10900;SDS011;5503;53.208;10.392;2023-07-20T07:11:01;2.20;;;0.60;;
10900;SDS011;5503;53.208;10.392;2023-07-20T07:13:28;2.10;;;0.50;;
10900;SDS011;5503;53.208;10.392;2023-07-20T07:15:57;1.98;;;0.47;;
10900;SDS011;5503;53.208;10.392;2023-07-20T07:18:23;2.07;;;0.50;;
10900;SDS011;5503;53.208;10.392;2023-07-20T07:20:51;2.10;;;0.50;;
10900;SDS011;5503;53.208;10.392;2023-07-20T07:23:19;1.98;;;0.50;;
10900;SDS011;5503;53.208;10.392;2023-07-20T07:25:46;2.00;;;0.50;;
10900;SDS011;5503;53.208;10.392;2023-07-20T07:28:13;2.10;;;0.50;;
10900;SDS011;5503;53.208;10.392;2023-07-20T07:30:40;2.03;;;0.50;;
10900;SDS011;5503;53.208;10.392;2023-07-20T07:33:09;2.10;;;0.60;;
10900;SDS011;5503;53.208;10.392;2023-07-20T07:35:36;2.20;;;0.60;;
10900;SDS011;5503;53.208;10.392;2023-07-20T07:38:03;2.05;;;0.50;;
10900;SDS011;5503;53.208;10.392;2023-07-20T07:40:30;1.90;;;0.50;;
10900;SDS011;5503;53.208;10.392;2023-07-20T07:42:57;1.90;;;0.40;;
10900;SDS011;5503;53.208;10.392;2023-07-20T07:45:24;1.83;;;0.40;;
10900;SDS011;5503;53.208;10.392;2023-07-20T07:47:51;2.13;;;0.50;;
10900;SDS011;5503;53.208;10.392;2023-07-20T07:50:19;1.98;;;0.47;;
10900;SDS011;5503;53.208;10.392;2023-07-20T07:52:46;2.00;;;0.50;;
10900;SDS011;5503;53.208;10.392;2023-07-20T07:55:13;2.00;;;0.43;;
10900;SDS011;5503;53.208;10.392;2023-07-20T07:57:42;1.80;;;0.40;;
10900;SDS011;5503;53.208;10.392;2023-07-20T08:00:10;1.90;;;0.40;;
10900;SDS011;5503;53.208;10.392;2023-07-20T08:02:40;1.90;;;0.40;;
10900;SDS011;5503;53.208;10.392;2023-07-20T08:05:08;2.00;;;0.50;;
10900;SDS011;5503;53.208;10.392;2023-07-20T08:07:36;2.00;;;0.50;;
10900;SDS011;5503;53.208;10.392;2023-07-20T08:10:04;2.00;;;0.50;;
10900;SDS011;5503;53.208;10.392;2023-07-20T08:12:31;2.00;;;0.50;;
10900;SDS011;5503;53.208;10.392;2023-07-20T08:14:58;1.77;;;0.40;;
10900;SDS011;5503;53.208;10.392;2023-07-20T08:17:25;2.08;;;0.50;;
10900;SDS011;5503;53.208;10.392;2023-07-20T08:19:52;2.10;;;0.50;;
10900;SDS011;5503;53.208;10.392;2023-07-20T08:28:22;2.00;;;0.43;;
10900;SDS011;5503;53.208;10.392;2023-07-20T08:30:49;2.00;;;0.50;;
10900;SDS011;5503;53.208;10.392;2023-07-20T08:33:17;2.10;;;0.53;;
10900;SDS011;5503;53.208;10.392;2023-07-20T08:35:45;1.90;;;0.40;;
10900;SDS011;5503;53.208;10.392;2023-07-20T08:38:12;1.90;;;0.43;;
10900;SDS011;5503;53.208;10.392;2023-07-20T08:40:40;1.80;;;0.40;;
10900;SDS011;5503;53.208;10.392;2023-07-20T08:43:08;2.17;;;0.60;;
10900;SDS011;5503;53.208;10.392;2023-07-20T08:45:39;1.90;;;0.40;;
10900;SDS011;5503;53.208;10.392;2023-07-20T08:48:07;2.10;;;0.57;;
10900;SDS011;5503;53.208;10.392;2023-07-20T08:50:35;1.92;;;0.40;;
10900;SDS011;5503;53.208;10.392;2023-07-20T08:53:02;1.90;;;0.40;;
10900;SDS011;5503;53.208;10.392;2023-07-20T08:55:30;2.00;;;0.50;;
10900;SDS011;5503;53.208;10.392;2023-07-20T08:57:58;2.00;;;0.50;;
10900;SDS011;5503;53.208;10.392;2023-07-20T09:00:26;2.03;;;0.50;;
10900;SDS011;5503;53.208;10.392;2023-07-20T09:02:55;2.00;;;0.50;;
10900;SDS011;5503;53.208;10.392;2023-07-20T09:05:24;2.00;;;0.50;;
10900;SDS011;5503;53.208;10.392;2023-07-20T09:07:52;2.00;;;0.47;;
10900;SDS011;5503;53.208;10.392;2023-07-20T09:10:20;2.00;;;0.50;;
10900;SDS011;5503;53.208;10.392;2023-07-20T09:12:48;1.92;;;0.43;;
10900;SDS011;5503;53.208;10.392;2023-07-20T09:15:15;1.90;;;0.40;;
10900;SDS011;5503;53.208;10.392;2023-07-20T09:17:45;1.90;;;0.40;;
10900;SDS011;5503;53.208;10.392;2023-07-20T09:20:15;1.80;;;0.40;;
10900;SDS011;5503;53.208;10.392;2023-07-20T09:22:42;1.90;;;0.40;;
10900;SDS011;5503;53.208;10.392;2023-07-20T09:25:12;1.92;;;0.40;;
10900;SDS011;5503;53.208;10.392;2023-07-20T09:27:41;2.00;;;0.50;;
10900;SDS011;5503;53.208;10.392;2023-07-20T09:30:09;2.05;;;0.50;;
10900;SDS011;5503;53.208;10.392;2023-07-20T09:32:38;1.80;;;0.40;;
10900;SDS011;5503;53.208;10.392;2023-07-20T09:35:07;2.00;;;0.50;;
10900;SDS011;5503;53.208;10.392;2023-07-20T09:37:41;1.83;;;0.40;;
10900;SDS011;5503;53.208;10.392;2023-07-20T09:40:17;1.83;;;0.40;;
10900;SDS011;5503;53.208;10.392;2023-07-20T09:42:45;2.00;;;0.50;;
10900;SDS011;5503;53.208;10.392;2023-07-20T09:45:12;2.00;;;0.50;;
10900;SDS011;5503;53.208;10.392;2023-07-20T09:47:39;1.90;;;0.40;;
10900;SDS011;5503;53.208;10.392;2023-07-20T09:50:06;1.92;;;0.43;;
10900;SDS011;5503;53.208;10.392;2023-07-20T09:52:37;1.80;;;0.40;;
10900;SDS011;5503;53.208;10.392;2023-07-20T09:55:07;1.83;;;0.40;;
10900;SDS011;5503;53.208;10.392;2023-07-20T09:57:36;2.00;;;0.40;;
10900;SDS011;5503;53.208;10.392;2023-07-20T10:00:04;1.70;;;0.40;;
10900;SDS011;5503;53.208;10.392;2023-07-20T10:02:40;1.90;;;0.40;;
10900;SDS011;5503;53.208;10.392;2023-07-20T10:05:11;2.00;;;0.47;;
10900;SDS011;5503;53.208;10.392;2023-07-20T10:07:40;1.80;;;0.40;;
10900;SDS011;5503;53.208;10.392;2023-07-20T10:10:13;2.17;;;0.60;;
10900;SDS011;5503;53.208;10.392;2023-07-20T10:12:42;2.00;;;0.50;;
10900;SDS011;5503;53.208;10.392;2023-07-20T10:15:11;2.00;;;0.50;;
10900;SDS011;5503;53.208;10.392;2023-07-20T10:17:46;1.90;;;0.40;;
10900;SDS011;5503;53.208;10.392;2023-07-20T10:20:20;2.00;;;0.40;;
10900;SDS011;5503;53.208;10.392;2023-07-20T10:22:49;2.00;;;0.45;;
10900;SDS011;5503;53.208;10.392;2023-07-20T10:25:21;2.10;;;0.50;;
10900;SDS011;5503;53.208;10.392;2023-07-20T10:27:49;2.00;;;0.50;;
10900;SDS011;5503;53.208;10.392;2023-07-20T10:30:16;2.10;;;0.50;;
10900;SDS011;5503;53.208;10.392;2023-07-20T10:32:45;2.03;;;0.50;;
10900;SDS011;5503;53.208;10.392;2023-07-20T10:35:13;2.10;;;0.50;;
10900;SDS011;5503;53.208;10.392;2023-07-20T10:37:48;1.93;;;0.50;;
10900;SDS011;5503;53.208;10.392;2023-07-20T10:40:30;1.92;;;0.40;;
10900;SDS011;5503;53.208;10.392;2023-07-20T10:42:58;1.92;;;0.40;;
10900;SDS011;5503;53.208;10.392;2023-07-20T10:45:36;1.90;;;0.40;;
10900;SDS011;5503;53.208;10.392;2023-07-20T10:48:06;2.17;;;0.68;;
10900;SDS011;5503;53.208;10.392;2023-07-20T10:50:39;2.00;;;0.50;;
10900;SDS011;5503;53.208;10.392;2023-07-20T10:53:11;1.90;;;0.40;;
10900;SDS011;5503;53.208;10.392;2023-07-20T10:55:40;1.88;;;0.40;;
10900;SDS011;5503;53.208;10.392;2023-07-20T10:58:15;1.75;;;0.40;;
10900;SDS011;5503;53.208;10.392;2023-07-20T11:00:57;1.80;;;0.40;;
10900;SDS011;5503;53.208;10.392;2023-07-20T11:03:27;1.80;;;0.40;;
10900;SDS011;5503;53.208;10.392;2023-07-20T11:05:54;1.90;;;0.40;;
10900;SDS011;5503;53.208;10.392;2023-07-20T11:13:55;1.80;;;0.40;;
10900;SDS011;5503;53.208;10.392;2023-07-20T11:16:33;1.90;;;0.47;;
10900;SDS011;5503;53.208;10.392;2023-07-20T11:19:05;1.80;;;0.40;;
10900;SDS011;5503;53.208;10.392;2023-07-20T11:21:40;1.90;;;0.40;;
10900;SDS011;5503;53.208;10.392;2023-07-20T11:24:08;1.80;;;0.40;;
10900;SDS011;5503;53.208;10.392;2023-07-20T11:26:46;2.10;;;0.60;;
10900;SDS011;5503;53.208;10.392;2023-07-20T11:29:15;1.60;;;0.30;;
10900;SDS011;5503;53.208;10.392;2023-07-20T11:31:43;1.90;;;0.50;;
10900;SDS011;5503;53.208;10.392;2023-07-20T11:34:11;1.90;;;0.50;;
10900;SDS011;5503;53.208;10.392;2023-07-20T11:36:39;1.80;;;0.40;;
10900;SDS011;5503;53.208;10.392;2023-07-20T11:39:08;1.90;;;0.40;;
10900;SDS011;5503;53.208;10.392;2023-07-20T11:41:35;1.90;;;0.40;;
10900;SDS011;5503;53.208;10.392;2023-07-20T11:44:04;2.00;;;0.50;;
10900;SDS011;5503;53.208;10.392;2023-07-20T11:46:32;2.10;;;0.60;;
10900;SDS011;5503;53.208;10.392;2023-07-20T11:49:00;1.73;;;0.40;;
10900;SDS011;5503;53.208;10.392;2023-07-20T11:51:27;1.98;;;0.50;;
10900;SDS011;5503;53.208;10.392;2023-07-20T11:53:55;1.90;;;0.40;;
10900;SDS011;5503;53.208;10.392;2023-07-20T11:56:23;1.90;;;0.40;;
10900;SDS011;5503;53.208;10.392;2023-07-20T11:58:50;1.90;;;0.40;;
10900;SDS011;5503;53.208;10.392;2023-07-20T12:01:25;1.92;;;0.50;;
10900;SDS011;5503;53.208;10.392;2023-07-20T12:03:54;1.90;;;0.40;;
10900;SDS011;5503;53.208;10.392;2023-07-20T12:06:22;2.10;;;0.50;;
10900;SDS011;5503;53.208;10.392;2023-07-20T12:08:50;2.05;;;0.50;;
10900;SDS011;5503;53.208;10.392;2023-07-20T12:11:33;1.75;;;0.40;;
10900;SDS011;5503;53.208;10.392;2023-07-20T12:14:00;2.00;;;0.47;;
10900;SDS011;5503;53.208;10.392;2023-07-20T12:16:30;1.98;;;0.47;;
10900;SDS011;5503;53.208;10.392;2023-07-20T12:19:00;2.00;;;0.50;;
10900;SDS011;5503;53.208;10.392;2023-07-20T12:21:28;1.90;;;0.45;;
10900;SDS011;5503;53.208;10.392;2023-07-20T12:23:55;2.03;;;0.50;;
10900;SDS011;5503;53.208;10.392;2023-07-20T12:26:23;1.90;;;0.40;;
10900;SDS011;5503;53.208;10.392;2023-07-20T12:28:50;2.00;;;0.40;;
10900;SDS011;5503;53.208;10.392;2023-07-20T12:31:18;1.90;;;0.50;;
10900;SDS011;5503;53.208;10.392;2023-07-20T12:33:47;2.33;;;0.82;;
10900;SDS011;5503;53.208;10.392;2023-07-20T12:36:14;2.10;;;0.50;;
10900;SDS011;5503;53.208;10.392;2023-07-20T12:38:42;1.95;;;0.45;;
10900;SDS011;5503;53.208;10.392;2023-07-20T12:41:09;1.90;;;0.50;;
10900;SDS011;5503;53.208;10.392;2023-07-20T12:43:39;2.10;;;0.50;;
10900;SDS011;5503;53.208;10.392;2023-07-20T12:46:06;2.20;;;0.60;;
10900;SDS011;5503;53.208;10.392;2023-07-20T12:48:33;2.00;;;0.50;;
10900;SDS011;5503;53.208;10.392;2023-07-20T12:51:03;2.00;;;0.50;;
10900;SDS011;5503;53.208;10.392;2023-07-20T12:53:30;2.20;;;0.60;;
10900;SDS011;5503;53.208;10.392;2023-07-20T12:55:57;1.90;;;0.50;;
10900;SDS011;5503;53.208;10.392;2023-07-20T12:58:24;1.90;;;0.50;;
10900;SDS011;5503;53.208;10.392;2023-07-20T13:00:51;2.30;;;0.60;;
10900;SDS011;5503;53.208;10.392;2023-07-20T13:03:18;2.00;;;0.50;;
10900;SDS011;5503;53.208;10.392;2023-07-20T13:05:45;2.00;;;0.50;;
10900;SDS011;5503;53.208;10.392;2023-07-20T13:08:14;2.00;;;0.50;;
10900;SDS011;5503;53.208;10.392;2023-07-20T13:10:43;2.17;;;0.60;;
10900;SDS011;5503;53.208;10.392;2023-07-20T13:13:10;1.90;;;0.43;;
10900;SDS011;5503;53.208;10.392;2023-07-20T13:15:40;2.00;;;0.50;;
10900;SDS011;5503;53.208;10.392;2023-07-20T13:18:08;2.00;;;0.50;;
10900;SDS011;5503;53.208;10.392;2023-07-20T13:20:35;2.10;;;0.50;;
10900;SDS011;5503;53.208;10.392;2023-07-20T13:23:02;2.08;;;0.50;;
10900;SDS011;5503;53.208;10.392;2023-07-20T13:25:31;2.00;;;0.50;;
10900;SDS011;5503;53.208;10.392;2023-07-20T13:27:58;1.95;;;0.40;;
10900;SDS011;5503;53.208;10.392;2023-07-20T13:30:25;2.00;;;0.50;;
10900;SDS011;5503;53.208;10.392;2023-07-20T13:32:52;1.70;;;0.40;;
10900;SDS011;5503;53.208;10.392;2023-07-20T13:35:19;2.10;;;0.50;;
10900;SDS011;5503;53.208;10.392;2023-07-20T13:37:46;1.90;;;0.40;;
10900;SDS011;5503;53.208;10.392;2023-07-20T13:40:14;1.90;;;0.40;;
10900;SDS011;5503;53.208;10.392;2023-07-20T13:42:45;2.00;;;0.50;;
10900;SDS011;5503;53.208;10.392;2023-07-20T13:45:12;1.80;;;0.40;;
10900;SDS011;5503;53.208;10.392;2023-07-20T13:47:39;2.00;;;0.50;;
10900;SDS011;5503;53.208;10.392;2023-07-20T13:50:06;2.42;;;0.73;;
10900;SDS011;5503;53.208;10.392;2023-07-20T13:52:34;1.90;;;0.45;;
10900;SDS011;5503;53.208;10.392;2023-07-20T13:55:02;2.10;;;0.50;;
10900;SDS011;5503;53.208;10.392;2023-07-20T13:57:29;2.00;;;0.50;;
10900;SDS011;5503;53.208;10.392;2023-07-20T13:59:57;2.00;;;0.50;;
10900;SDS011;5503;53.208;10.392;2023-07-20T14:02:25;1.90;;;0.40;;
10900;SDS011;5503;53.208;10.392;2023-07-20T14:04:52;2.00;;;0.50;;
10900;SDS011;5503;53.208;10.392;2023-07-20T14:07:20;2.08;;;0.60;;
10900;SDS011;5503;53.208;10.392;2023-07-20T14:09:47;2.10;;;0.50;;
10900;SDS011;5503;53.208;10.392;2023-07-20T14:12:14;2.08;;;0.47;;
10900;SDS011;5503;53.208;10.392;2023-07-20T14:14:41;2.20;;;0.60;;
10900;SDS011;5503;53.208;10.392;2023-07-20T14:17:10;2.00;;;0.50;;
10900;SDS011;5503;53.208;10.392;2023-07-20T14:19:37;2.00;;;0.50;;
10900;SDS011;5503;53.208;10.392;2023-07-20T14:22:05;1.90;;;0.40;;
10900;SDS011;5503;53.208;10.392;2023-07-20T14:24:35;2.00;;;0.50;;
10900;SDS011;5503;53.208;10.392;2023-07-20T14:27:02;2.13;;;0.50;;
10900;SDS011;5503;53.208;10.392;2023-07-20T14:29:29;2.00;;;0.50;;
10900;SDS011;5503;53.208;10.392;2023-07-20T14:31:56;2.28;;;0.85;;
10900;SDS011;5503;53.208;10.392;2023-07-20T14:34:25;2.10;;;0.50;;
10900;SDS011;5503;53.208;10.392;2023-07-20T14:36:52;2.00;;;0.40;;
10900;SDS011;5503;53.208;10.392;2023-07-20T14:39:20;2.17;;;0.60;;
10900;SDS011;5503;53.208;10.392;2023-07-20T14:41:49;1.90;;;0.40;;
10900;SDS011;5503;53.208;10.392;2023-07-20T14:44:17;1.90;;;0.45;;
10900;SDS011;5503;53.208;10.392;2023-07-20T14:46:45;1.90;;;0.40;;
10900;SDS011;5503;53.208;10.392;2023-07-20T14:49:12;2.10;;;0.50;;
10900;SDS011;5503;53.208;10.392;2023-07-20T14:51:40;2.10;;;0.50;;
10900;SDS011;5503;53.208;10.392;2023-07-20T14:54:11;2.03;;;0.50;;
10900;SDS011;5503;53.208;10.392;2023-07-20T14:56:39;2.10;;;0.50;;
10900;SDS011;5503;53.208;10.392;2023-07-20T14:59:14;2.20;;;0.50;;
10900;SDS011;5503;53.208;10.392;2023-07-20T15:01:42;1.90;;;0.40;;
10900;SDS011;5503;53.208;10.392;2023-07-20T15:04:10;1.90;;;0.40;;
10900;SDS011;5503;53.208;10.392;2023-07-20T15:06:37;2.00;;;0.50;;
10900;SDS011;5503;53.208;10.392;2023-07-20T15:09:06;2.17;;;0.60;;